Time;durP1;ratioP1;P1;durP2;ratioP2;P2;SDS_P1;SDS_P2;PMS_P1;PMS_P2;Temp;Humidity;BMP_temperature;BMP_pressure;BME280_temperature;BME280_humidity;BME280_pressure;Samples;Min_cycle;Max_cycle;Signal;HPM_P1;HPM_P2
2023/05/19 00:00:06;;;;;;;14.23;6.17;;;;;;;-143.84;62.74;45092.88;5071363;28;20498;-56
2023/05/19 00:02:38;;;;;;;9.53;7.20;;;;;;;-143.84;62.72;45102.38;5071462;28;20433;-56
2023/05/19 00:05:06;;;;;;;9.33;6.13;;;;;;;-143.84;62.01;45104.28;5072171;28;20445;-56
2023/05/19 00:07:38;;;;;;;8.20;5.73;;;;;;;-143.84;61.52;45144.28;5071910;28;20429;-56
2023/05/19 00:10:06;;;;;;;8.97;6.30;;;;;;;-143.84;60.96;45117.63;5071758;28;20532;-56
2023/05/19 00:12:34;;;;;;;11.07;6.80;;;;;;;-143.84;60.53;45094.78;5071902;28;20434;-56
2023/05/19 00:15:01;;;;;;;15.00;7.30;;;;;;;-143.84;60.19;45111.91;5071473;28;20429;-56
2023/05/19 00:17:28;;;;;;;10.20;6.07;;;;;;;-143.84;60.18;45129.03;5071413;28;20455;-56
2023/05/19 00:19:57;;;;;;;11.37;6.23;;;;;;;-143.84;59.59;45117.63;5071161;28;20441;-56
2023/05/19 00:22:24;;;;;;;10.47;6.60;;;;;;;-143.84;59.77;45098.56;5071124;28;20445;-56
2023/05/19 00:24:51;;;;;;;9.83;6.27;;;;;;;-143.84;59.30;45106.19;5071175;28;20942;-56
2023/05/19 00:27:18;;;;;;;10.93;6.77;;;;;;;-143.84;59.21;45085.25;5069946;28;20897;-56
2023/05/19 00:29:45;;;;;;;10.27;6.43;;;;;;;-143.84;58.79;45123.34;5070733;28;20483;-56
2023/05/19 00:32:13;;;;;;;11.13;6.53;;;;;;;-143.84;58.93;45106.19;5070906;28;20498;-56
2023/05/19 00:34:40;;;;;;;10.87;7.20;;;;;;;-143.84;58.63;45130.94;5071205;28;20516;-56
2023/05/19 00:37:08;;;;;;;11.50;5.80;;;;;;;-143.84;58.99;45119.53;5070885;28;21030;-56
2023/05/19 00:39:35;;;;;;;17.60;6.43;;;;;;;-143.84;59.24;45096.66;5070898;28;20529;-56
2023/05/19 00:42:04;;;;;;;11.40;7.37;;;;;;;-143.84;59.61;45129.03;5070906;28;20433;-56
2023/05/19 00:44:32;;;;;;;10.63;6.40;;;;;;;-143.84;59.70;45115.72;5070774;28;20820;-57
2023/05/19 00:46:59;;;;;;;11.57;6.33;;;;;;;-143.84;59.77;45129.03;5070611;28;20500;-56
2023/05/19 00:49:26;;;;;;;14.60;6.43;;;;;;;-143.84;60.47;45106.19;5070872;28;20932;-56
2023/05/19 00:51:53;;;;;;;13.47;7.10;;;;;;;-143.84;60.63;45090.97;5070802;28;20507;-56
2023/05/19 00:54:22;;;;;;;19.27;6.60;;;;;;;-143.84;61.09;45098.56;5070663;28;20463;-57
2023/05/19 00:56:49;;;;;;;9.10;6.60;;;;;;;-143.84;60.93;45102.38;5070248;28;20963;-56
2023/05/19 00:59:16;;;;;;;13.00;7.07;;;;;;;-143.84;60.74;45123.34;5070420;28;20449;-56
2023/05/19 01:01:44;;;;;;;18.63;6.53;;;;;;;-143.84;60.72;45106.19;5070643;28;20940;-56
2023/05/19 01:04:15;;;;;;;10.70;6.30;;;;;;;-143.84;60.54;45140.47;5070530;28;20927;-56
2023/05/19 01:06:42;;;;;;;9.73;6.47;;;;;;;-143.84;60.38;45102.38;5070473;28;20982;-56
2023/05/19 01:09:10;;;;;;;8.70;6.40;;;;;;;-143.84;60.24;45117.63;5070456;28;20444;-56
2023/05/19 01:11:39;;;;;;;12.77;7.77;;;;;;;-143.84;60.31;45140.47;5070643;28;20491;-56
2023/05/19 01:14:06;;;;;;;7.40;6.13;;;;;;;-143.84;60.15;45129.03;5070167;28;20498;-56
2023/05/19 01:16:37;;;;;;;8.67;5.70;;;;;;;-143.84;59.76;45083.34;5070212;28;20449;-56
2023/05/19 01:19:20;;;;;;;14.80;6.40;;;;;;;-143.84;59.39;45106.19;5070539;28;20437;-56
2023/05/19 01:22:14;;;;;;;8.30;6.87;;;;;;;-143.84;59.13;45129.03;5070518;28;20988;-56
2023/05/19 01:25:06;;;;;;;12.20;6.63;;;;;;;-143.84;60.60;45134.75;5070179;28;20507;-56
2023/05/19 01:27:47;;;;;;;10.57;7.30;;;;;;;-143.84;61.54;45108.09;5059611;28;20587;-56
2023/05/19 01:30:28;;;;;;;12.47;7.00;;;;;;;-143.84;62.83;45117.63;5070307;28;20444;-56
2023/05/19 01:32:59;;;;;;;13.93;7.50;;;;;;;-143.84;64.14;45106.19;5070312;28;20471;-56
2023/05/19 01:35:27;;;;;;;13.23;7.50;;;;;;;-143.84;65.59;45092.88;5070251;28;20438;-56
2023/05/19 01:37:57;;;;;;;19.63;9.87;;;;;;;-143.84;67.23;45110.00;5070400;28;20437;-57
2023/05/19 01:40:26;;;;;;;12.10;9.40;;;;;;;-143.84;67.72;45110.00;5071917;28;20499;-56
2023/05/19 01:42:55;;;;;;;22.03;9.27;;;;;;;-143.84;68.89;45115.72;5074215;28;20452;-56
2023/05/19 01:45:23;;;;;;;11.93;8.50;;;;;;;-143.84;69.93;45102.38;5074335;28;20441;-56
2023/05/19 01:47:54;;;;;;;20.27;9.97;;;;;;;-143.84;70.39;45106.19;5074378;28;20467;-56
2023/05/19 01:50:22;;;;;;;21.80;10.47;;;;;;;-143.84;71.30;45117.63;5074163;28;20487;-56
2023/05/19 01:52:49;;;;;;;16.27;10.90;;;;;;;-143.84;71.80;45115.72;5074063;28;20441;-56
2023/05/19 01:55:16;;;;;;;16.90;10.77;;;;;;;-143.84;72.35;45113.81;5073928;28;20437;-56
2023/05/19 01:57:53;;;;;;;20.93;10.90;;;;;;;-143.84;73.48;45096.66;5073887;28;20498;-56
2023/05/19 02:00:31;;;;;;;28.73;11.80;;;;;;;-143.84;73.56;45096.66;5073833;28;20437;-56
2023/05/19 02:03:15;;;;;;;14.47;11.63;;;;;;;-143.84;74.10;45098.56;5073867;28;20436;-56
2023/05/19 02:05:59;;;;;;;16.97;12.13;;;;;;;-143.84;74.53;45090.97;5073453;28;20495;-56
2023/05/19 02:08:34;;;;;;;21.73;12.30;;;;;;;-143.84;74.73;45090.97;5073740;28;20459;-56
2023/05/19 02:11:07;;;;;;;16.90;11.40;;;;;;;-143.84;74.80;45108.09;5073334;28;20485;-56
2023/05/19 02:13:37;;;;;;;19.77;11.40;;;;;;;-143.84;74.86;45102.38;5073633;28;21101;-56
2023/05/19 02:16:06;;;;;;;19.93;11.90;;;;;;;-143.84;74.69;45098.56;5072843;28;20499;-56
2023/05/19 02:18:35;;;;;;;18.67;12.60;;;;;;;-143.84;74.87;45096.66;5071932;28;20473;-56
2023/05/19 02:21:02;;;;;;;17.53;12.57;;;;;;;-143.84;74.92;45087.16;5072138;28;20451;-56
2023/05/19 02:23:29;;;;;;;18.43;12.30;;;;;;;-143.84;74.70;45106.19;5071990;28;20440;-55
2023/05/19 02:25:56;;;;;;;23.20;14.00;;;;;;;-143.84;74.69;45140.47;5071918;28;20449;-56
2023/05/19 02:28:27;;;;;;;15.70;11.50;;;;;;;-143.84;74.91;45098.56;5071538;28;20531;-55
2023/05/19 02:30:54;;;;;;;14.87;11.73;;;;;;;-143.84;74.72;45096.66;5072022;28;20477;-56
2023/05/19 02:33:23;;;;;;;19.90;12.63;;;;;;;-143.84;74.75;45079.53;5071816;28;20452;-55
2023/05/19 02:35:51;;;;;;;25.10;13.03;;;;;;;-143.84;74.67;45113.81;5071927;28;20914;-56
2023/05/19 02:38:20;;;;;;;19.90;13.33;;;;;;;-143.84;74.63;45106.19;5071880;28;20437;-55
2023/05/19 02:40:47;;;;;;;18.80;13.83;;;;;;;-143.84;74.78;45079.53;5071533;28;20440;-55
2023/05/19 02:43:14;;;;;;;19.20;13.73;;;;;;;-143.84;74.66;45081.44;5071679;28;20456;-55
2023/05/19 02:45:41;;;;;;;16.00;11.70;;;;;;;-143.84;74.31;45098.56;5071576;28;20440;-55
2023/05/19 02:48:08;;;;;;;18.20;12.10;;;;;;;-143.84;74.24;45130.94;5071634;28;20472;-55
2023/05/19 02:50:35;;;;;;;19.03;11.13;;;;;;;-143.84;74.09;45092.88;5070446;28;20523;-55
2023/05/19 02:53:04;;;;;;;24.97;13.70;;;;;;;-143.84;73.87;45110.00;5071561;28;20947;-55
2023/05/19 02:55:31;;;;;;;23.63;12.43;;;;;;;-143.84;73.64;45092.88;5071227;28;20477;-55
2023/05/19 02:57:58;;;;;;;27.37;12.87;;;;;;;-143.84;73.69;45113.81;5070820;28;20453;-55
2023/05/19 03:00:25;;;;;;;17.93;12.20;;;;;;;-143.84;73.45;45094.78;5070974;28;20947;-55
2023/05/19 03:02:52;;;;;;;21.00;12.33;;;;;;;-143.84;73.19;45092.88;5071289;28;20437;-55
2023/05/19 03:05:20;;;;;;;14.37;10.90;;;;;;;-143.84;73.08;45111.91;5051210;28;20847;-55
2023/05/19 03:07:47;;;;;;;18.40;12.10;;;;;;;-143.84;72.83;45104.28;5051292;28;20441;-55
2023/05/19 03:10:15;;;;;;;19.73;12.37;;;;;;;-143.84;72.69;45102.38;5050830;28;20503;-56
2023/05/19 03:12:42;;;;;;;20.07;12.00;;;;;;;-143.84;72.25;45130.94;5065128;28;20472;-55
2023/05/19 03:15:11;;;;;;;18.10;12.40;;;;;;;-143.84;72.16;45094.78;5091747;28;20445;-56
2023/05/19 03:17:39;;;;;;;16.40;11.83;;;;;;;-143.84;71.92;45106.19;5091044;28;20444;-56
2023/05/19 03:20:09;;;;;;;15.23;11.60;;;;;;;-143.84;71.38;45106.19;5092140;28;20489;-56
2023/05/19 03:22:36;;;;;;;13.57;11.17;;;;;;;-143.84;70.48;45083.34;5092460;28;20565;-56
2023/05/19 03:25:04;;;;;;;22.10;12.80;;;;;;;-143.84;69.51;45108.09;5065640;28;20441;-56
2023/05/19 03:27:32;;;;;;;17.70;11.17;;;;;;;-143.84;68.76;45085.25;5060647;28;20999;-56
2023/05/19 03:29:59;;;;;;;14.23;11.37;;;;;;;-143.84;68.85;45090.97;5061528;28;20499;-57
2023/05/19 03:32:26;;;;;;;24.47;10.83;;;;;;;-143.84;69.05;45106.19;5058340;28;20501;-52
2023/05/19 03:34:53;;;;;;;15.80;10.67;;;;;;;-143.84;68.52;45104.28;5058444;28;20860;-52
2023/05/19 03:37:20;;;;;;;16.07;10.50;;;;;;;-143.84;67.47;45098.56;5056522;28;21028;-52
2023/05/19 03:39:48;;;;;;;18.07;12.23;;;;;;;-143.84;66.63;45094.78;5057683;28;20441;-51
2023/05/19 03:42:15;;;;;;;24.43;11.47;;;;;;;-143.84;65.39;45094.78;5056907;28;20437;-52
2023/05/19 03:44:43;;;;;;;18.50;11.50;;;;;;;-143.84;64.14;45092.88;5056813;28;20449;-51
2023/05/19 03:47:10;;;;;;;15.10;10.40;;;;;;;-143.84;62.41;45089.06;5053796;28;20445;-51
2023/05/19 03:49:37;;;;;;;18.00;10.03;;;;;;;-143.84;60.44;45094.78;5057098;28;22018;-52
2023/05/19 03:52:05;;;;;;;18.50;10.43;;;;;;;-143.84;58.64;45077.63;5056216;28;20479;-52
2023/05/19 03:54:32;;;;;;;14.30;10.20;;;;;;;-143.84;58.20;45089.06;5057203;28;20487;-51
2023/05/19 03:56:59;;;;;;;17.53;10.33;;;;;;;-143.84;57.39;45070.00;5054066;28;20522;-52
2023/05/19 03:59:26;;;;;;;15.67;11.40;;;;;;;-143.84;56.84;45087.16;5055694;28;20554;-51
2023/05/19 04:01:55;;;;;;;12.93;9.70;;;;;;;-143.84;55.43;45073.81;5057051;28;21075;-51
2023/05/19 04:04:22;;;;;;;15.00;10.97;;;;;;;-143.84;54.16;45096.66;5055196;28;20456;-52
2023/05/19 04:06:49;;;;;;;15.37;10.67;;;;;;;-143.84;54.01;45081.44;5057836;28;20455;-51
2023/05/19 04:09:18;;;;;;;13.10;8.73;;;;;;;-143.84;53.57;45041.44;5055815;28;20459;-52
2023/05/19 04:11:45;;;;;;;16.57;9.50;;;;;;;-143.84;52.14;45062.41;5056452;28;20892;-51
2023/05/19 04:14:12;;;;;;;18.80;8.50;;;;;;;-143.84;51.90;45075.72;5056507;28;20442;-51
2023/05/19 04:16:40;;;;;;;11.53;8.80;;;;;;;-143.84;51.03;45079.53;5055575;28;20515;-52
2023/05/19 04:19:09;;;;;;;14.93;9.13;;;;;;;-143.84;50.53;45096.66;5060517;28;20456;-51
2023/05/19 04:21:36;;;;;;;17.23;9.40;;;;;;;-143.84;50.04;45056.69;5089002;28;20456;-52
2023/05/19 04:24:05;;;;;;;12.27;9.03;;;;;;;-143.84;49.13;45083.34;5090338;28;20508;-50
2023/05/19 04:26:33;;;;;;;13.50;9.47;;;;;;;-143.84;49.59;45041.44;5090209;28;20438;-51
2023/05/19 04:29:00;;;;;;;12.10;8.77;;;;;;;-143.84;48.93;45052.88;5090250;28;20479;-52
2023/05/19 04:31:28;;;;;;;16.33;8.93;;;;;;;-143.84;48.73;45037.66;5090295;28;20476;-52
2023/05/19 04:33:55;;;;;;;11.20;8.30;;;;;;;-143.84;47.97;45090.97;5090149;28;20945;-52
2023/05/19 04:36:24;;;;;;;14.87;8.80;;;;;;;-143.84;48.20;45081.44;5090040;28;20445;-52
2023/05/19 04:38:53;;;;;;;12.47;8.90;;;;;;;-143.84;47.97;45056.69;5090069;28;20453;-51
2023/05/19 04:41:21;;;;;;;12.27;8.53;;;;;;;-143.84;47.40;45070.00;5090005;28;20531;-52
2023/05/19 04:43:48;;;;;;;10.73;8.93;;;;;;;-143.84;46.84;45079.53;5089910;28;20870;-56
2023/05/19 04:46:16;;;;;;;12.43;9.20;;;;;;;-143.84;47.13;45035.75;5082901;28;20506;-56
2023/05/19 04:48:43;;;;;;;13.80;9.20;;;;;;;-143.84;46.36;45054.78;5069398;28;20460;-52
2023/05/19 04:51:13;;;;;;;16.50;7.77;;;;;;;-143.84;46.42;45064.31;5068990;28;20442;-52
2023/05/19 04:53:42;;;;;;;20.90;9.73;;;;;;;-143.84;46.66;45064.31;5070784;28;20537;-52
2023/05/19 04:56:12;;;;;;;19.83;8.20;;;;;;;-143.84;47.02;45075.72;5069382;28;20444;-52
2023/05/19 04:58:40;;;;;;;13.00;9.13;;;;;;;-143.84;47.08;45039.53;5069581;28;20445;-51
2023/05/19 05:01:08;;;;;;;15.10;9.50;;;;;;;-143.84;47.26;45054.78;5069378;28;20441;-52
2023/05/19 05:03:35;;;;;;;11.20;9.10;;;;;;;-143.84;47.82;45085.25;5069592;28;20526;-52
2023/05/19 05:06:03;;;;;;;16.60;8.73;;;;;;;-143.84;48.71;45052.88;5069316;28;20861;-51
2023/05/19 05:08:30;;;;;;;25.93;8.73;;;;;;;-143.84;48.80;45047.16;5069397;28;20442;-52
2023/05/19 05:11:00;;;;;;;12.63;9.10;;;;;;;-143.84;49.62;45087.16;5068767;28;20449;-52
2023/05/19 05:13:27;;;;;;;19.13;9.30;;;;;;;-143.84;50.33;45079.53;5069095;28;20484;-51
2023/05/19 05:15:55;;;;;;;18.83;8.57;;;;;;;-143.84;50.05;45087.16;5069204;28;20448;-52
2023/05/19 05:18:23;;;;;;;13.70;9.20;;;;;;;-143.84;49.80;45073.81;5069320;28;20448;-52
2023/05/19 05:20:50;;;;;;;10.90;8.03;;;;;;;-143.84;49.58;45071.91;5069570;28;20518;-51
2023/05/19 05:23:18;;;;;;;12.97;9.40;;;;;;;-143.84;48.83;45062.41;5069575;28;20441;-52
2023/05/19 05:25:47;;;;;;;11.23;8.60;;;;;;;-143.84;49.01;45066.22;5069086;28;20447;-51
2023/05/19 05:28:16;;;;;;;10.60;7.73;;;;;;;-143.84;48.42;45071.91;5068876;28;20545;-53
2023/05/19 05:30:43;;;;;;;15.03;9.17;;;;;;;-143.84;48.08;45071.91;5069151;28;20470;-52
2023/05/19 05:33:11;;;;;;;13.17;9.40;;;;;;;-143.84;47.82;45079.53;5069513;28;20518;-52
2023/05/19 05:35:38;;;;;;;18.53;9.43;;;;;;;-143.84;47.66;45075.72;5069273;28;20467;-51
2023/05/19 05:38:05;;;;;;;12.10;8.77;;;;;;;-143.84;47.29;45077.63;5069210;28;20444;-52
2023/05/19 05:40:32;;;;;;;10.07;8.23;;;;;;;-143.84;46.49;45073.81;5069119;28;21309;-52
2023/05/19 05:42:59;;;;;;;13.97;9.20;;;;;;;-143.84;45.89;45047.16;5068909;28;20442;-51
2023/05/19 05:45:28;;;;;;;13.70;9.17;;;;;;;-143.84;44.96;45060.50;5069158;28;20433;-51
2023/05/19 05:47:56;;;;;;;19.33;8.20;;;;;;;-143.84;43.87;45056.69;5068608;28;20433;-52
2023/05/19 05:50:23;;;;;;;60.60;17.50;;;;;;;-143.84;43.51;45049.06;5068482;28;20840;-52
2023/05/19 05:52:53;;;;;;;11.40;9.17;;;;;;;-143.84;42.84;45031.94;5069159;28;20538;-51
2023/05/19 05:55:21;;;;;;;25.30;8.20;;;;;;;-143.84;42.35;45045.25;5068687;28;20429;-52
2023/05/19 05:57:50;;;;;;;14.83;9.03;;;;;;;-143.84;41.41;45031.94;5069004;28;20512;-52
2023/05/19 06:00:18;;;;;;;12.30;8.63;;;;;;;-143.84;40.80;45018.59;5068660;28;20454;-51
2023/05/19 06:02:50;;;;;;;14.43;8.03;;;;;;;-143.84;39.85;45062.41;5068743;28;20431;-51
2023/05/19 06:05:17;;;;;;;12.77;8.00;;;;;;;-143.84;39.93;45037.66;5068743;28;20444;-52
2023/05/19 06:07:44;;;;;;;36.63;9.40;;;;;;;-143.84;39.29;45039.53;5069124;28;20436;-51
2023/05/19 06:10:11;;;;;;;14.63;7.87;;;;;;;-143.84;38.98;45041.44;5068502;28;20782;-52
2023/05/19 06:12:39;;;;;;;60.97;10.97;;;;;;;-143.84;38.75;45018.59;5068631;28;21068;-51
2023/05/19 06:15:07;;;;;;;23.97;8.80;;;;;;;-143.84;38.23;45016.69;5068609;28;20440;-52
2023/05/19 06:17:35;;;;;;;16.90;8.70;;;;;;;-143.84;38.20;45024.31;5068485;28;20436;-51
2023/05/19 06:20:05;;;;;;;10.33;7.57;;;;;;;-143.84;37.58;45010.97;5068433;28;20468;-51
2023/05/19 06:22:32;;;;;;;14.10;8.30;;;;;;;-143.84;37.27;45030.03;5068471;28;20509;-52
2023/05/19 06:24:59;;;;;;;11.53;7.60;;;;;;;-143.84;36.87;45020.50;5068130;28;20504;-52
2023/05/19 06:27:26;;;;;;;30.07;8.97;;;;;;;-143.84;37.24;45009.09;5071409;28;21012;-52
2023/05/19 06:29:53;;;;;;;16.50;8.87;;;;;;;-143.84;37.12;45014.78;5072175;28;20460;-50
2023/05/19 06:32:20;;;;;;;15.63;8.47;;;;;;;-143.84;37.11;45007.19;5066121;28;21308;-52
2023/05/19 06:34:53;;;;;;;20.60;8.00;;;;;;;-143.84;37.20;45022.41;5050214;28;20477;-52
2023/05/19 06:37:22;;;;;;;17.27;8.43;;;;;;;-143.84;37.44;44997.66;5049875;28;20460;-52
2023/05/19 06:39:51;;;;;;;17.10;10.33;;;;;;;-143.84;37.21;45024.31;5050420;28;20593;-52
2023/05/19 06:42:21;;;;;;;12.37;7.57;;;;;;;-143.84;37.47;45022.41;5050011;28;21382;-52
2023/05/19 06:44:49;;;;;;;11.70;8.47;;;;;;;-143.84;36.90;45005.28;5050525;28;20998;-52
2023/05/19 06:47:16;;;;;;;17.93;8.67;;;;;;;-143.84;36.39;44997.66;5050593;28;20537;-52
2023/05/19 06:49:43;;;;;;;19.07;8.43;;;;;;;-143.84;36.95;44993.84;5051576;28;20514;-52
2023/05/19 06:52:10;;;;;;;15.60;8.60;;;;;;;-143.84;36.14;45012.88;5051800;28;20477;-52
2023/05/19 06:54:39;;;;;;;9.63;8.20;;;;;;;-143.84;36.54;44990.03;5051411;28;20442;-51
2023/05/19 06:57:06;;;;;;;18.47;9.20;;;;;;;-143.84;36.99;44995.75;5051400;28;20887;-52
2023/05/19 06:59:33;;;;;;;17.60;8.33;;;;;;;-143.84;36.07;44990.03;5051430;28;20510;-52
2023/05/19 07:02:01;;;;;;;23.87;8.00;;;;;;;-143.84;35.87;44993.84;5052869;28;20435;-57
2023/05/19 07:04:28;;;;;;;17.93;8.70;;;;;;;-143.84;36.07;44984.31;5052595;28;20453;-57
2023/05/19 07:06:58;;;;;;;18.70;9.27;;;;;;;-143.84;35.69;45005.28;5052797;28;21163;-57
2023/05/19 07:09:25;;;;;;;11.37;8.73;;;;;;;-143.84;35.25;45003.38;5052687;28;20440;-57
2023/05/19 07:11:55;;;;;;;20.27;9.30;;;;;;;-143.84;36.09;45010.97;5052323;28;20442;-57
2023/05/19 07:14:22;;;;;;;14.57;9.20;;;;;;;-143.84;35.78;44988.13;5052892;28;20442;-57
2023/05/19 07:16:49;;;;;;;20.80;9.37;;;;;;;-143.84;35.56;45003.38;5059097;28;20457;-57
2023/05/19 07:19:18;;;;;;;29.87;8.70;;;;;;;-143.84;35.79;44980.53;5072047;28;20502;-57
2023/05/19 07:21:45;;;;;;;16.20;9.30;;;;;;;-143.84;35.19;45003.38;5072198;28;20441;-57
2023/05/19 07:24:12;;;;;;;20.30;9.80;;;;;;;-143.84;34.63;45007.19;5072408;28;20951;-57
2023/05/19 07:26:40;;;;;;;20.90;9.30;;;;;;;-143.84;35.08;44976.72;5072507;28;20436;-57
2023/05/19 07:29:08;;;;;;;21.63;9.93;;;;;;;-143.84;35.53;44991.94;5071862;28;21065;-57
2023/05/19 07:31:52;;;;;;;31.27;9.57;;;;;;;-143.84;34.92;44993.84;5070898;28;20438;-57
2023/05/19 07:34:20;;;;;;;21.73;10.00;;;;;;;-143.84;33.91;44984.31;5070725;28;20481;-57
2023/05/19 07:36:47;;;;;;;27.67;8.70;;;;;;;-143.84;33.54;44955.75;5070428;28;20499;-57
2023/05/19 07:39:15;;;;;;;16.40;9.17;;;;;;;-143.84;33.44;44976.72;5070835;28;20438;-57
2023/05/19 07:59:00;;;;;;;15.97;10.80;;;;;;;-143.84;32.78;44944.34;5070172;28;20502;-57
2023/05/19 08:01:28;;;;;;;15.47;10.03;;;;;;;-143.84;33.46;44957.66;5070406;28;20484;-57
2023/05/19 08:03:55;;;;;;;21.10;10.03;;;;;;;-143.84;33.65;44978.63;5070292;28;20453;-57
2023/05/19 08:06:22;;;;;;;18.20;11.40;;;;;;;-143.84;33.11;44944.34;5070558;28;20437;-57
2023/05/19 08:08:49;;;;;;;11.50;9.10;;;;;;;-143.84;33.04;44940.53;5070270;28;20437;-57
2023/05/19 08:11:16;;;;;;;16.73;10.90;;;;;;;-143.84;33.17;44967.19;5070131;28;20444;-57
2023/05/19 08:13:46;;;;;;;22.33;11.97;;;;;;;-143.84;33.35;44963.38;5070457;28;21230;-53
2023/05/19 08:16:14;;;;;;;18.40;11.00;;;;;;;-143.84;33.74;44980.53;5070175;28;20532;-53
2023/05/19 08:18:42;;;;;;;15.53;10.50;;;;;;;-143.84;34.48;44959.56;5069953;28;20441;-57
2023/05/19 08:21:09;;;;;;;13.00;11.50;;;;;;;-143.84;33.28;44934.81;5069599;28;20962;-57
2023/05/19 08:23:37;;;;;;;19.33;11.67;;;;;;;-143.84;34.26;44972.91;5069584;28;20441;-57
2023/05/19 08:26:04;;;;;;;17.43;12.00;;;;;;;-143.84;33.94;44988.13;5069793;28;21222;-57
2023/05/19 08:28:32;;;;;;;17.77;11.63;;;;;;;-143.84;34.05;44984.31;5069400;28;20484;-57
2023/05/19 08:30:59;;;;;;;19.77;11.20;;;;;;;-143.84;34.04;44978.63;5069521;28;21033;-57
2023/05/19 08:33:27;;;;;;;25.10;11.37;;;;;;;-143.84;34.52;44982.41;5069688;28;20481;-57
2023/05/19 08:35:56;;;;;;;16.10;12.27;;;;;;;-143.84;34.54;44988.13;5069411;28;20955;-57
2023/05/19 08:38:25;;;;;;;14.67;12.03;;;;;;;-143.84;34.54;45003.38;5069478;28;21364;-57
2023/05/19 08:40:52;;;;;;;17.93;10.53;;;;;;;-143.84;34.56;44959.56;5069320;28;20963;-57
2023/05/19 08:43:19;;;;;;;19.90;11.77;;;;;;;-143.84;34.25;44971.00;5069235;28;20449;-57
2023/05/19 08:45:47;;;;;;;24.67;11.67;;;;;;;-143.84;33.55;44932.91;5069521;28;20431;-57
2023/05/19 08:48:17;;;;;;;16.77;12.00;;;;;;;-143.84;33.09;44951.97;5068975;28;20456;-57
2023/05/19 08:50:54;;;;;;;16.17;12.17;;;;;;;-143.84;33.14;44955.75;5069535;28;20911;-57
2023/05/19 08:53:27;;;;;;;22.50;11.67;;;;;;;-143.84;34.02;44940.53;5069110;28;20579;-57
2023/05/19 08:56:01;;;;;;;22.90;13.00;;;;;;;-143.84;32.77;44963.38;5069238;28;20460;-57
2023/05/19 08:58:29;;;;;;;14.63;11.30;;;;;;;-143.84;32.49;44940.53;5069140;28;20538;-57
2023/05/19 09:00:57;;;;;;;23.73;10.33;;;;;;;-143.84;33.69;44936.72;5068838;28;20585;-57
2023/05/19 09:03:25;;;;;;;29.83;11.53;;;;;;;-143.84;33.12;44957.66;5069175;28;20448;-57
2023/05/19 09:05:54;;;;;;;17.97;12.07;;;;;;;-143.84;32.92;44955.75;5069373;28;20526;-57
2023/05/19 09:08:21;;;;;;;15.17;11.27;;;;;;;-143.84;32.24;44950.06;5069208;28;20444;-57
2023/05/19 09:10:48;;;;;;;13.00;10.67;;;;;;;-143.84;32.59;44938.63;5069290;28;20441;-57
2023/05/19 09:13:15;;;;;;;17.20;10.43;;;;;;;-143.84;32.97;44948.16;5069021;28;20989;-57
2023/05/19 09:15:44;;;;;;;15.93;10.93;;;;;;;-143.84;33.87;44965.28;5069022;28;20996;-57
2023/05/19 09:18:13;;;;;;;16.03;11.47;;;;;;;-143.84;32.88;44927.19;5069084;28;20455;-56
2023/05/19 09:20:41;;;;;;;19.03;11.53;;;;;;;-143.84;33.51;44969.09;5068836;28;20476;-57
2023/05/19 09:23:13;;;;;;;15.97;10.90;;;;;;;-143.84;34.08;44953.88;5067775;28;20883;-56
2023/05/19 09:25:47;;;;;;;19.83;11.60;;;;;;;-143.84;33.75;44957.66;5068285;28;20446;-57
2023/05/19 09:28:15;;;;;;;12.20;9.80;;;;;;;-143.84;34.21;44978.63;5066262;28;20516;-57
2023/05/19 09:30:42;;;;;;;38.23;11.53;;;;;;;-143.84;34.38;44986.22;5068255;28;20440;-57
2023/05/19 09:33:09;;;;;;;20.63;11.03;;;;;;;-143.84;34.09;44932.91;5065894;28;20476;-57
2023/05/19 09:35:36;;;;;;;17.03;11.13;;;;;;;-143.84;34.74;44959.56;5068785;28;20448;-56
2023/05/19 09:38:04;;;;;;;14.50;9.50;;;;;;;-143.84;34.53;44959.56;5068752;28;20942;-57
2023/05/19 09:40:34;;;;;;;16.33;10.50;;;;;;;-143.84;34.32;44950.06;5069341;28;20467;-56
2023/05/19 09:43:05;;;;;;;20.17;9.43;;;;;;;-143.84;34.73;44988.13;5088980;28;20510;-56
2023/05/19 09:45:32;;;;;;;22.93;9.77;;;;;;;-143.84;35.05;44967.19;5088875;28;20807;-56
2023/05/19 09:48:04;;;;;;;17.60;9.37;;;;;;;-143.84;35.53;44969.09;5088618;28;20518;-56
2023/05/19 09:50:32;;;;;;;19.03;9.37;;;;;;;-143.84;35.28;44972.91;5088616;28;20433;-56
2023/05/19 09:53:00;;;;;;;13.40;9.30;;;;;;;-143.84;35.46;44974.81;5066964;28;20574;-56
2023/05/19 09:55:29;;;;;;;13.93;9.37;;;;;;;-143.84;36.77;44984.31;5057125;28;20450;-56
2023/05/19 09:57:58;;;;;;;19.10;9.30;;;;;;;-143.84;35.90;44990.03;5048758;28;20931;-56
2023/05/19 10:00:27;;;;;;;16.27;9.20;;;;;;;-143.84;36.25;45003.38;5048466;28;20454;-56
2023/05/19 10:02:56;;;;;;;15.30;9.40;;;;;;;-143.84;36.17;44974.81;5052852;28;20441;-56
2023/05/19 10:05:24;;;;;;;13.10;8.30;;;;;;;-143.84;36.02;44997.66;5055285;28;20446;-56
2023/05/19 10:07:53;;;;;;;11.80;8.47;;;;;;;-143.84;36.66;44982.41;5070915;28;20438;-56
2023/05/19 10:10:21;;;;;;;16.17;8.53;;;;;;;-143.84;36.32;44980.53;5072331;28;20452;-56
2023/05/19 10:12:49;;;;;;;14.87;7.63;;;;;;;-143.84;38.09;44990.03;5072311;28;20469;-56
2023/05/19 10:15:19;;;;;;;13.23;8.83;;;;;;;-143.84;35.29;44991.94;5072198;28;20452;-56
2023/05/19 10:17:46;;;;;;;14.67;8.10;;;;;;;-143.84;36.81;44993.84;5072143;28;20445;-56
2023/05/19 10:20:15;;;;;;;13.40;8.50;;;;;;;-143.84;36.10;44948.16;5072113;28;20851;-56
2023/05/19 10:22:43;;;;;;;15.43;8.10;;;;;;;-143.84;35.82;44991.94;5071980;28;20438;-56
2023/05/19 10:25:13;;;;;;;13.57;7.97;;;;;;;-143.84;36.39;44959.56;5071839;28;20442;-56
2023/05/19 10:27:44;;;;;;;8.33;7.50;;;;;;;-143.84;35.24;44991.94;5071950;28;20506;-56
2023/05/19 10:30:16;;;;;;;21.37;8.30;;;;;;;-143.84;35.38;44995.75;5071940;28;20437;-56
2023/05/19 10:32:47;;;;;;;14.53;8.47;;;;;;;-143.84;35.37;44971.00;5071779;28;20441;-56
2023/05/19 10:35:33;;;;;;;15.30;7.93;;;;;;;-143.84;35.00;44988.13;5071711;28;20532;-56
2023/05/19 10:38:15;;;;;;;15.00;7.33;;;;;;;-143.84;34.59;44969.09;5071819;28;20433;-56
2023/05/19 10:40:54;;;;;;;13.67;7.90;;;;;;;-143.84;34.88;44990.03;5071515;28;20944;-56
2023/05/19 10:43:29;;;;;;;14.60;8.17;;;;;;;-143.84;34.27;44984.31;5071360;28;20941;-56
2023/05/19 10:45:57;;;;;;;18.70;8.40;;;;;;;-143.84;34.89;44990.03;5071877;28;20498;-56
2023/05/19 10:48:26;;;;;;;17.40;8.60;;;;;;;-143.84;35.16;44974.81;5071608;28;20959;-56
2023/05/19 10:50:54;;;;;;;12.77;6.60;;;;;;;-143.84;33.98;44980.53;5072040;28;20434;-56
2023/05/19 10:53:22;;;;;;;12.70;6.97;;;;;;;-143.84;34.29;44972.91;5071419;28;21010;-56
2023/05/19 10:55:54;;;;;;;8.70;7.03;;;;;;;-143.84;34.42;44965.28;5071413;28;20962;-56
2023/05/19 10:58:39;;;;;;;14.57;7.83;;;;;;;-143.84;34.39;44982.41;5071450;28;20445;-56
2023/05/19 11:01:10;;;;;;;11.13;7.40;;;;;;;-143.84;34.44;44961.47;5071241;28;20473;-56
2023/05/19 11:03:52;;;;;;;26.37;8.40;;;;;;;-143.84;33.46;44995.75;5071377;28;20454;-56
2023/05/19 11:06:27;;;;;;;11.80;7.10;;;;;;;-143.84;35.15;44991.94;5071176;28;20445;-52
2023/05/19 11:08:59;;;;;;;11.83;7.27;;;;;;;-143.84;33.38;44971.00;5071198;28;20449;-51
2023/05/19 11:11:27;;;;;;;16.90;7.70;;;;;;;-143.84;33.77;44999.56;5070681;28;20951;-52
2023/05/19 11:13:55;;;;;;;15.90;7.50;;;;;;;-143.84;34.25;44969.09;5071176;28;20917;-51
2023/05/19 11:16:29;;;;;;;9.53;7.07;;;;;;;-143.84;33.90;44980.53;5071531;28;20444;-50
2023/05/19 11:18:59;;;;;;;13.43;6.73;;;;;;;-143.84;33.58;44978.63;5071308;28;20444;-54
2023/05/19 11:21:41;;;;;;;8.30;6.13;;;;;;;-143.84;33.80;44988.13;5071030;28;20437;-55
2023/05/19 11:24:09;;;;;;;11.90;6.90;;;;;;;-143.84;33.54;44974.81;5070951;28;20452;-56
2023/05/19 11:26:43;;;;;;;7.23;6.33;;;;;;;-143.84;34.05;45005.28;5071145;28;20525;-56
2023/05/19 11:29:10;;;;;;;7.83;6.30;;;;;;;-143.84;33.27;44986.22;5070677;28;20508;-56
2023/05/19 11:31:39;;;;;;;7.60;6.03;;;;;;;-143.84;33.04;44991.94;5070920;28;20433;-56